Time;durP1;ratioP1;P1;durP2;ratioP2;P2;SDS_P1;SDS_P2;PMS_P1;PMS_P2;Temp;Humidity;BMP_temperature;BMP_pressure;BME280_temperature;BME280_humidity;BME280_pressure;Samples;Min_cycle;Max_cycle;Signal;HPM_P1;HPM_P2
2022/11/07 00:00:46;;;;;;;1.05;0.73;;;;;;;21.12;35.86;99845.25;4539248;28;20387;-65
2022/11/07 00:02:56;;;;;;;0.85;0.70;;;;;;;21.11;35.94;99838.66;4538719;28;20112;-65
2022/11/07 00:05:07;;;;;;;1.48;0.73;;;;;;;21.04;35.87;99844.31;4539797;28;20316;-65
2022/11/07 00:07:17;;;;;;;0.80;0.70;;;;;;;21.11;36.00;99850.16;4537131;28;20030;-65
2022/11/07 00:09:28;;;;;;;1.20;0.70;;;;;;;21.19;35.69;99851.91;4537743;28;20072;-65
2022/11/07 00:11:38;;;;;;;0.70;0.57;;;;;;;21.24;35.96;99854.44;4537055;28;20040;-65
2022/11/07 00:13:48;;;;;;;0.70;0.60;;;;;;;21.25;36.13;99858.16;4538645;28;20497;-65
2022/11/07 00:16:00;;;;;;;0.82;0.68;;;;;;;21.26;35.98;99857.75;4554256;28;20036;-65
2022/11/07 00:18:11;;;;;;;0.65;0.50;;;;;;;21.26;35.98;99852.00;4537750;28;20103;-65
2022/11/07 00:20:21;;;;;;;0.98;0.70;;;;;;;21.27;36.21;99858.56;4540505;28;20102;-65
2022/11/07 00:22:31;;;;;;;0.70;0.50;;;;;;;21.26;35.85;99863.50;4536899;28;20965;-65
2022/11/07 00:24:42;;;;;;;0.80;0.60;;;;;;;21.28;35.83;99860.22;4539978;28;20095;-65
2022/11/07 00:26:52;;;;;;;0.60;0.60;;;;;;;21.27;35.91;99867.16;4539141;28;20529;-65
2022/11/07 00:29:04;;;;;;;0.70;0.60;;;;;;;21.23;35.96;99867.13;4540982;28;20055;-65
2022/11/07 00:31:15;;;;;;;0.82;0.75;;;;;;;21.26;35.87;99872.09;4538182;28;20572;-64
2022/11/07 00:33:25;;;;;;;1.00;0.60;;;;;;;21.26;35.99;99868.41;4536905;28;20044;-65
2022/11/07 00:35:40;;;;;;;0.82;0.60;;;;;;;21.25;36.01;99870.44;4536888;28;20040;-65
2022/11/07 00:37:53;;;;;;;0.95;0.63;;;;;;;21.25;35.92;99872.50;4538074;28;20655;-65
2022/11/07 00:40:04;;;;;;;1.35;0.60;;;;;;;21.25;36.02;99872.50;4537352;28;20029;-65
2022/11/07 00:42:15;;;;;;;0.77;0.57;;;;;;;21.23;36.21;99875.72;4536815;28;20033;-65
2022/11/07 00:44:25;;;;;;;1.67;0.60;;;;;;;21.25;35.76;99878.25;4538427;28;20599;-65
2022/11/07 00:46:36;;;;;;;0.70;0.45;;;;;;;21.23;36.22;99881.47;4538509;28;20033;-65
2022/11/07 00:48:47;;;;;;;0.95;0.65;;;;;;;21.21;36.18;99871.59;4537855;28;20084;-65
2022/11/07 00:51:08;;;;;;;1.17;0.63;;;;;;;21.24;35.93;99880.28;4538081;28;20599;-65
2022/11/07 00:53:18;;;;;;;0.63;0.43;;;;;;;21.22;35.93;99885.56;4539042;28;21048;-65
2022/11/07 00:55:31;;;;;;;0.88;0.50;;;;;;;21.22;36.03;99876.94;4538972;28;20068;-64
2022/11/07 00:57:42;;;;;;;1.05;0.60;;;;;;;21.22;36.17;99873.25;4524736;28;20033;-65
2022/11/07 00:59:52;;;;;;;1.55;0.52;;;;;;;21.21;35.87;99875.31;4539203;28;20304;-65
2022/11/07 01:02:02;;;;;;;0.73;0.60;;;;;;;21.22;36.17;99876.13;4536611;28;20037;-66
2022/11/07 01:06:44;;;;;;;1.15;0.50;;;;;;;21.20;36.04;99875.69;4538950;28;20094;-64
2022/11/07 01:08:55;;;;;;;0.63;0.50;;;;;;;21.22;36.31;99879.81;4537907;28;20569;-65
2022/11/07 01:11:07;;;;;;;0.47;0.40;;;;;;;21.22;36.27;99876.13;4538365;28;20029;-64
2022/11/07 01:13:17;;;;;;;0.50;0.50;;;;;;;21.20;36.20;99876.50;4537843;28;20037;-65
2022/11/07 01:15:28;;;;;;;1.05;0.60;;;;;;;21.20;36.28;99882.25;4540402;28;20687;-65
2022/11/07 01:17:38;;;;;;;0.80;0.38;;;;;;;21.21;36.38;99883.09;4539262;28;20038;-65
2022/11/07 01:19:49;;;;;;;0.57;0.50;;;;;;;21.21;36.15;99895.41;4539361;28;20037;-65
2022/11/07 01:21:59;;;;;;;0.65;0.55;;;;;;;21.20;36.38;99882.25;4539239;28;20037;-65
2022/11/07 01:24:12;;;;;;;0.80;0.50;;;;;;;21.18;36.55;99893.31;4537582;28;20057;-65
2022/11/07 01:26:22;;;;;;;1.27;0.60;;;;;;;21.20;36.28;99892.91;4539834;28;20040;-65
2022/11/07 01:28:34;;;;;;;0.70;0.60;;;;;;;21.20;36.35;99898.66;4542319;28;20032;-65
2022/11/07 01:30:45;;;;;;;0.60;0.50;;;;;;;21.19;36.50;99902.72;4537870;28;21009;-65
2022/11/07 01:32:55;;;;;;;0.40;0.40;;;;;;;21.19;36.66;99897.81;4539242;28;20044;-65
2022/11/07 01:35:06;;;;;;;0.90;0.55;;;;;;;21.18;36.67;99901.09;4537328;28;20440;-66
2022/11/07 01:37:16;;;;;;;0.75;0.50;;;;;;;21.18;36.49;99901.09;4537637;28;20037;-65
2022/11/07 01:39:26;;;;;;;0.40;0.40;;;;;;;21.18;36.35;99906.81;4539619;28;20065;-65
2022/11/07 01:41:39;;;;;;;0.68;0.50;;;;;;;21.17;36.68;99900.25;4537034;28;20064;-65
2022/11/07 01:43:52;;;;;;;0.93;0.50;;;;;;;21.17;36.69;99894.50;4539109;28;20148;-65
2022/11/07 01:46:02;;;;;;;0.63;0.40;;;;;;;21.17;36.72;99911.72;4539610;28;20047;-65
2022/11/07 01:48:12;;;;;;;0.52;0.40;;;;;;;21.16;37.19;99915.81;4535628;28;20033;-65
2022/11/07 01:50:23;;;;;;;1.13;0.40;;;;;;;21.18;36.96;99912.56;4537678;28;20038;-66
2022/11/07 01:52:40;;;;;;;0.47;0.40;;;;;;;21.16;36.81;99904.34;4537506;28;20128;-65
2022/11/07 01:55:06;;;;;;;1.00;0.30;;;;;;;21.17;36.89;99911.72;4538691;28;20542;-65
2022/11/07 01:57:22;;;;;;;0.52;0.43;;;;;;;21.17;36.82;99910.91;4537727;28;20037;-66
2022/11/07 01:59:35;;;;;;;0.50;0.50;;;;;;;21.14;37.07;99915.38;4538442;28;20036;-66
2022/11/07 02:01:45;;;;;;;1.23;0.50;;;;;;;21.15;37.25;99911.31;4538466;28;20851;-66
2022/11/07 02:03:57;;;;;;;1.27;0.50;;;;;;;21.15;37.01;99914.19;4536865;28;20052;-66
2022/11/07 02:06:15;;;;;;;0.40;0.40;;;;;;;21.14;37.22;99915.38;4536259;28;20071;-66
2022/11/07 02:08:28;;;;;;;0.57;0.40;;;;;;;21.14;37.34;99912.50;4539744;28;20058;-65
2022/11/07 02:10:40;;;;;;;0.73;0.40;;;;;;;21.14;37.44;99909.63;4537674;28;20033;-65
2022/11/07 02:12:51;;;;;;;0.40;0.30;;;;;;;21.13;37.27;99910.88;4538080;28;20037;-65
2022/11/07 02:15:02;;;;;;;0.50;0.40;;;;;;;21.12;37.36;99905.50;4539276;28;20075;-65
2022/11/07 02:17:13;;;;;;;0.40;0.40;;;;;;;21.13;37.25;99913.72;4538506;28;20052;-66
2022/11/07 02:19:29;;;;;;;0.93;0.40;;;;;;;21.13;37.43;99908.00;4536593;28;20098;-66
2022/11/07 02:22:07;;;;;;;0.70;0.40;;;;;;;21.12;37.30;99909.19;4539895;28;20044;-66
2022/11/07 02:24:31;;;;;;;0.37;0.30;;;;;;;21.12;37.61;99914.13;4543066;28;20044;-63
2022/11/07 02:26:43;;;;;;;0.52;0.40;;;;;;;21.13;37.75;99905.13;4540792;28;20253;-64
2022/11/07 02:28:55;;;;;;;0.60;0.30;;;;;;;21.13;37.43;99910.88;4527721;28;20041;-63
2022/11/07 02:31:05;;;;;;;1.10;0.50;;;;;;;21.13;37.58;99910.88;4541880;28;20033;-63
2022/11/07 02:33:22;;;;;;;0.45;0.40;;;;;;;21.12;37.64;99909.19;4539834;28;20033;-63
2022/11/07 02:35:35;;;;;;;0.50;0.40;;;;;;;21.11;37.60;99901.81;4542478;28;20995;-63
2022/11/07 02:37:45;;;;;;;0.82;0.50;;;;;;;21.11;37.68;99898.94;4541143;28;20347;-63
2022/11/07 02:39:58;;;;;;;0.75;0.40;;;;;;;21.12;37.42;99903.44;4540722;28;20040;-63
2022/11/07 02:42:09;;;;;;;0.65;0.40;;;;;;;21.12;37.57;99908.38;4541143;28;20807;-63
2022/11/07 02:44:20;;;;;;;0.65;0.40;;;;;;;21.11;37.87;99900.97;4540332;28;20049;-63
2022/11/07 02:46:31;;;;;;;1.48;0.40;;;;;;;21.11;37.63;99901.81;4539878;28;20028;-64
2022/11/07 02:48:48;;;;;;;0.40;0.40;;;;;;;21.09;37.55;99904.22;4540741;28;20202;-63
2022/11/07 02:50:58;;;;;;;0.52;0.30;;;;;;;21.09;37.64;99904.22;4527968;28;20212;-63
2022/11/07 02:53:09;;;;;;;1.00;0.40;;;;;;;21.10;37.67;99899.31;4540748;28;20128;-63
2022/11/07 02:55:20;;;;;;;0.47;0.30;;;;;;;21.09;37.34;99891.94;4539365;28;20041;-63
2022/11/07 02:57:30;;;;;;;0.30;0.30;;;;;;;21.09;37.18;99891.94;4543016;28;20386;-64
2022/11/07 02:59:41;;;;;;;0.40;0.30;;;;;;;21.09;37.44;99904.22;4540045;28;20505;-64
2022/11/07 03:01:51;;;;;;;0.85;0.30;;;;;;;21.08;37.30;99905.44;4540976;28;20581;-63
2022/11/07 03:04:02;;;;;;;0.55;0.30;;;;;;;21.08;37.51;99908.31;4539583;28;20147;-63
2022/11/07 03:06:16;;;;;;;0.50;0.40;;;;;;;21.08;37.28;99911.19;4540411;28;20136;-63
2022/11/07 03:08:27;;;;;;;0.45;0.40;;;;;;;21.08;37.64;99919.81;4526215;28;20041;-63
2022/11/07 03:10:38;;;;;;;0.75;0.40;;;;;;;21.08;37.32;99914.06;4541279;28;20036;-64
2022/11/07 03:12:48;;;;;;;0.65;0.38;;;;;;;21.09;37.59;99914.91;4539608;28;20036;-63
2022/11/07 03:14:59;;;;;;;0.52;0.30;;;;;;;21.08;37.57;99918.97;4542038;28;20040;-63
2022/11/07 03:17:09;;;;;;;0.32;0.30;;;;;;;21.06;37.53;99910.75;4542749;28;20485;-63
2022/11/07 03:19:19;;;;;;;0.45;0.30;;;;;;;21.05;37.63;99909.09;4539159;28;20033;-64
2022/11/07 03:21:30;;;;;;;0.80;0.50;;;;;;;21.06;37.30;99913.59;4539357;28;20485;-64
2022/11/07 03:23:40;;;;;;;0.52;0.40;;;;;;;21.04;37.51;99907.41;4537864;28;20057;-63
2022/11/07 03:25:51;;;;;;;0.35;0.35;;;;;;;21.05;37.52;99914.84;4541337;28;20084;-63
2022/11/07 03:28:01;;;;;;;0.55;0.35;;;;;;;21.05;37.61;99917.72;4540723;28;20027;-63
2022/11/07 03:30:12;;;;;;;0.43;0.38;;;;;;;21.02;37.68;99909.88;4538933;28;20515;-63
2022/11/07 03:32:23;;;;;;;0.75;0.40;;;;;;;21.04;37.38;99913.16;4539428;28;20098;-64
2022/11/07 03:34:33;;;;;;;0.40;0.30;;;;;;;21.04;37.30;99921.75;4539697;28;20036;-63
2022/11/07 03:36:44;;;;;;;0.55;0.30;;;;;;;21.04;37.79;99921.75;4539986;28;20040;-64
2022/11/07 03:38:54;;;;;;;0.35;0.30;;;;;;;21.03;37.46;99919.28;4543557;28;20072;-63
2022/11/07 03:41:04;;;;;;;0.40;0.30;;;;;;;21.02;37.75;99915.63;4540506;28;20597;-63
2022/11/07 03:43:15;;;;;;;0.80;0.32;;;;;;;21.03;37.55;99923.00;4539512;28;20071;-63
2022/11/07 03:45:26;;;;;;;0.63;0.40;;;;;;;21.03;37.57;99925.03;4537433;28;20032;-63
2022/11/07 03:47:38;;;;;;;0.85;0.40;;;;;;;21.02;37.67;99927.09;4539652;28;20052;-63
2022/11/07 03:49:48;;;;;;;0.40;0.30;;;;;;;21.01;37.78;99925.41;4539930;28;20036;-63
2022/11/07 03:51:59;;;;;;;0.43;0.40;;;;;;;21.01;37.76;99925.41;4541926;28;20503;-63
2022/11/07 03:54:09;;;;;;;0.77;0.30;;;;;;;21.03;37.80;99933.63;4539231;28;20080;-64
2022/11/07 03:56:20;;;;;;;0.73;0.73;;;;;;;21.00;37.94;99923.78;4538261;28;20102;-63
2022/11/07 03:58:30;;;;;;;1.60;1.08;;;;;;;21.01;37.76;99925.41;4538655;28;20175;-63
2022/11/07 04:00:41;;;;;;;1.10;0.90;;;;;;;21.01;37.79;99927.47;4539831;28;20155;-63
2022/11/07 04:02:51;;;;;;;1.85;1.30;;;;;;;21.01;38.04;99931.16;4539471;28;20029;-63
2022/11/07 04:05:02;;;;;;;3.90;2.22;;;;;;;20.99;38.03;99930.72;4539032;28;20925;-63
2022/11/07 04:07:12;;;;;;;1.50;1.20;;;;;;;21.00;37.95;99935.25;4537992;28;20041;-64
2022/11/07 04:09:22;;;;;;;0.93;0.70;;;;;;;21.00;38.33;99938.13;4540210;28;20418;-64
2022/11/07 04:19:01;;;;;;;1.08;0.80;;;;;;;20.99;38.36;99942.22;4538938;28;20072;-63
2022/11/07 04:21:11;;;;;;;1.17;0.60;;;;;;;20.99;38.29;99939.34;4539671;28;20037;-64
2022/11/07 04:23:21;;;;;;;1.15;0.70;;;;;;;20.99;38.41;99939.34;4538406;28;20028;-63
2022/11/07 04:28:01;;;;;;;0.98;0.43;;;;;;;20.98;38.25;99937.66;4539262;28;20091;-63
2022/11/07 04:30:25;;;;;;;1.13;0.88;;;;;;;20.99;38.25;99944.25;4537891;28;20537;-64
2022/11/07 04:32:36;;;;;;;1.38;0.63;;;;;;;20.97;38.46;99936.03;4538492;28;20033;-65
2022/11/07 04:34:46;;;;;;;1.48;0.73;;;;;;;20.97;38.54;99941.75;4538440;28;20094;-66
2022/11/07 04:36:56;;;;;;;1.23;0.70;;;;;;;20.96;38.43;99937.25;4537363;28;20598;-66
2022/11/07 04:39:07;;;;;;;0.85;0.70;;;;;;;20.97;38.23;99943.78;4539786;28;20147;-66
2022/11/07 04:41:20;;;;;;;1.60;0.90;;;;;;;20.94;38.49;99942.50;4541618;28;20044;-65
2022/11/07 04:43:30;;;;;;;0.60;0.50;;;;;;;20.96;38.48;99940.13;4539758;28;20040;-65
2022/11/07 04:45:41;;;;;;;0.95;0.70;;;;;;;20.96;38.45;99939.25;4539318;28;20048;-65
2022/11/07 04:47:51;;;;;;;0.80;0.55;;;;;;;20.96;38.34;99934.38;4539047;28;20187;-65
2022/11/07 04:50:03;;;;;;;1.40;0.60;;;;;;;20.94;38.69;99938.78;4538768;28;20034;-65
2022/11/07 04:52:13;;;;;;;0.45;0.45;;;;;;;20.96;38.46;99942.13;4539984;28;21382;-65
2022/11/07 04:54:24;;;;;;;1.02;0.50;;;;;;;20.95;38.44;99941.28;4539121;28;20036;-63
2022/11/07 04:56:35;;;;;;;1.00;0.47;;;;;;;20.96;38.35;99939.25;4538327;28;20612;-63
2022/11/07 04:58:45;;;;;;;1.48;0.80;;;;;;;20.93;38.63;99937.97;4538884;28;20115;-63
2022/11/07 05:00:55;;;;;;;0.82;0.60;;;;;;;20.94;38.63;99936.75;4539058;28;20039;-63
2022/11/07 05:03:07;;;;;;;0.70;0.50;;;;;;;20.96;38.61;99945.84;4538193;28;20041;-63
2022/11/07 05:05:17;;;;;;;0.70;0.60;;;;;;;20.91;38.44;99930.97;4538501;28;20037;-62
2022/11/07 05:07:28;;;;;;;0.93;0.60;;;;;;;20.94;38.42;99935.94;4538983;28;20048;-62
2022/11/07 05:09:38;;;;;;;0.95;0.70;;;;;;;20.92;38.31;99933.44;4539710;28;20442;-63
2022/11/07 05:11:48;;;;;;;1.25;0.50;;;;;;;20.94;38.48;99939.63;4537694;28;20036;-63
2022/11/07 05:13:59;;;;;;;1.00;0.90;;;;;;;20.94;38.48;99935.94;4537719;28;20235;-63
2022/11/07 05:16:18;;;;;;;1.50;0.90;;;;;;;20.94;38.61;99938.78;4537067;28;20052;-63
2022/11/07 05:18:28;;;;;;;1.20;0.40;;;;;;;20.93;38.52;99932.22;4537997;28;20034;-63
2022/11/07 05:20:39;;;;;;;1.35;0.50;;;;;;;20.91;38.35;99936.69;4538414;28;20041;-63
2022/11/07 05:25:18;;;;;;;1.38;0.60;;;;;;;20.92;38.37;99939.19;4537132;28;20720;-64
2022/11/07 05:27:29;;;;;;;0.60;0.60;;;;;;;20.92;38.60;99933.44;4537155;28;20393;-65
2022/11/07 05:29:39;;;;;;;1.23;0.95;;;;;;;20.92;38.36;99936.31;4539538;28;20036;-63
2022/11/07 05:31:50;;;;;;;0.98;0.50;;;;;;;20.91;38.58;99939.56;4536893;28;20593;-63
2022/11/07 05:34:00;;;;;;;1.25;0.70;;;;;;;20.91;38.51;99939.56;4538386;28;20538;-63
2022/11/07 05:36:16;;;;;;;0.75;0.50;;;;;;;20.91;38.55;99943.28;4538125;28;20667;-63
2022/11/07 05:38:26;;;;;;;1.05;0.60;;;;;;;20.90;38.47;99938.72;4538061;28;20044;-62
2022/11/07 05:40:38;;;;;;;1.15;0.80;;;;;;;20.89;38.62;99939.97;4540727;28;20688;-63
2022/11/07 05:42:49;;;;;;;1.42;0.55;;;;;;;20.88;38.41;99935.44;4538937;28;20769;-63
2022/11/07 05:44:59;;;;;;;0.85;0.50;;;;;;;20.89;38.41;99925.63;4538298;28;20049;-59
2022/11/07 05:47:10;;;;;;;0.63;0.60;;;;;;;20.90;38.46;99935.06;4538216;28;20067;-58
2022/11/07 05:49:20;;;;;;;0.60;0.50;;;;;;;20.90;38.48;99935.88;4540835;28;20040;-58
2022/11/07 05:51:30;;;;;;;0.52;0.50;;;;;;;20.92;38.21;99949.81;4537498;28;20037;-58
2022/11/07 05:53:41;;;;;;;1.35;0.65;;;;;;;20.91;38.46;99948.19;4537115;28;20119;-58
2022/11/07 05:55:52;;;;;;;1.40;0.65;;;;;;;20.90;38.41;99950.22;4552273;28;20401;-58
2022/11/07 05:58:10;;;;;;;1.50;0.40;;;;;;;20.89;38.43;99951.44;4529196;28;20075;-58
2022/11/07 06:00:21;;;;;;;0.47;0.43;;;;;;;20.86;38.37;99948.50;4539407;28;20099;-58
2022/11/07 06:02:31;;;;;;;0.77;0.40;;;;;;;20.89;38.18;99951.44;4541126;28;20037;-58
2022/11/07 06:04:42;;;;;;;0.77;0.47;;;;;;;20.89;38.54;99954.28;4540900;28;20658;-58
2022/11/07 06:06:52;;;;;;;1.00;0.50;;;;;;;20.88;38.63;99961.25;4539840;28;26479;-58
2022/11/07 06:09:03;;;;;;;0.70;0.50;;;;;;;20.88;38.41;99961.25;4539827;28;20076;-58
2022/11/07 06:11:13;;;;;;;1.48;0.60;;;;;;;20.85;38.37;99956.28;4541232;28;20037;-58
2022/11/07 06:13:23;;;;;;;0.60;0.40;;;;;;;20.87;38.52;99962.44;4540797;28;20126;-58
2022/11/07 06:15:35;;;;;;;0.60;0.57;;;;;;;20.87;38.56;99973.94;4541719;28;20091;-58
2022/11/07 06:17:46;;;;;;;0.80;0.50;;;;;;;20.86;38.54;99972.28;4540885;28;20033;-58
2022/11/07 06:19:56;;;;;;;1.17;0.52;;;;;;;20.86;38.63;99965.72;4527398;28;20049;-58
2022/11/07 06:22:06;;;;;;;0.80;0.55;;;;;;;20.86;38.50;99978.03;4541291;28;20033;-58
2022/11/07 06:24:18;;;;;;;1.52;0.55;;;;;;;20.86;38.71;99972.28;4542137;28;20041;-59
2022/11/07 06:26:29;;;;;;;0.80;0.55;;;;;;;20.86;38.52;99966.53;4541085;28;20041;-58
2022/11/07 06:28:39;;;;;;;1.30;0.68;;;;;;;20.86;38.53;99982.91;4540265;28;20631;-58
2022/11/07 06:30:50;;;;;;;0.90;0.60;;;;;;;20.84;38.67;99974.69;4539833;28;20099;-60
2022/11/07 06:33:02;;;;;;;0.47;0.40;;;;;;;20.85;38.76;99976.38;4541986;28;20037;-61
2022/11/07 06:35:13;;;;;;;1.17;0.47;;;;;;;20.85;38.52;99982.13;4539644;28;20112;-60
2022/11/07 06:37:25;;;;;;;1.27;0.57;;;;;;;20.84;38.82;99980.44;4540662;28;20041;-61
2022/11/07 06:39:35;;;;;;;1.63;0.65;;;;;;;20.83;38.71;99979.59;4537970;28;20040;-60
2022/11/07 06:41:48;;;;;;;0.63;0.50;;;;;;;20.84;38.82;99986.16;4538801;28;20060;-60
2022/11/07 06:43:58;;;;;;;1.30;0.50;;;;;;;20.83;38.58;99982.47;4538549;28;20045;-61
2022/11/07 06:46:12;;;;;;;0.80;0.60;;;;;;;20.83;38.92;99993.13;4539363;28;20040;-60
2022/11/07 06:48:22;;;;;;;1.45;0.57;;;;;;;20.83;38.61;99982.47;4526959;28;20086;-61
2022/11/07 06:50:33;;;;;;;1.20;0.60;;;;;;;20.82;38.64;99979.97;4538038;28;20066;-61
2022/11/07 06:52:44;;;;;;;1.48;0.68;;;;;;;20.82;38.86;99991.44;4536486;28;20039;-62
2022/11/07 06:54:54;;;;;;;1.45;0.73;;;;;;;20.83;38.88;99990.25;4541400;28;20094;-60
2022/11/07 06:57:05;;;;;;;1.08;0.68;;;;;;;20.83;39.01;99995.16;4539367;28;20032;-60
2022/11/07 06:59:15;;;;;;;1.40;0.80;;;;;;;20.82;38.82;100000.06;4539440;28;20120;-61
2022/11/07 07:01:25;;;;;;;1.90;0.77;;;;;;;20.82;38.82;100002.94;4540007;28;20040;-61
2022/11/07 07:03:36;;;;;;;2.40;0.70;;;;;;;20.82;39.13;100002.94;4540186;28;20044;-60
2022/11/07 07:05:46;;;;;;;1.48;0.70;;;;;;;20.82;39.18;100005.00;4537242;28;20060;-63
2022/11/07 07:07:57;;;;;;;1.73;0.82;;;;;;;20.74;39.33;100001.16;4538358;28;20022;-61
2022/11/07 07:10:07;;;;;;;1.08;0.47;;;;;;;20.75;39.28;100002.81;4538262;28;20413;-61
2022/11/07 07:12:18;;;;;;;1.70;0.82;;;;;;;20.80;39.10;100008.25;4540101;28;20345;-61
2022/11/07 07:14:28;;;;;;;0.90;0.60;;;;;;;20.82;39.10;100000.06;4540086;28;20036;-61
2022/11/07 07:16:39;;;;;;;1.83;0.60;;;;;;;20.78;39.19;100004.91;4538541;28;20465;-62
2022/11/07 07:18:49;;;;;;;2.05;0.70;;;;;;;20.82;39.11;100002.94;4538362;28;20044;-61
2022/11/07 07:21:08;;;;;;;1.70;0.68;;;;;;;20.82;39.15;100000.06;4539540;28;20432;-61
2022/11/07 07:23:19;;;;;;;1.38;0.60;;;;;;;20.82;39.27;100008.66;4538090;28;20036;-61
2022/11/07 07:25:30;;;;;;;1.65;0.57;;;;;;;20.81;39.24;100007.03;4538163;28;20049;-61
2022/11/07 07:27:40;;;;;;;1.77;0.65;;;;;;;20.82;39.42;100008.66;4539440;28;20036;-62
2022/11/07 07:29:52;;;;;;;1.33;0.50;;;;;;;20.80;39.19;100006.19;4539697;28;20029;-60
2022/11/07 07:32:02;;;;;;;1.48;0.60;;;;;;;20.80;39.27;100008.25;4537033;28;20111;-60
2022/11/07 07:34:13;;;;;;;1.83;0.80;;;;;;;20.80;39.42;100006.19;4536520;28;20516;-60
2022/11/07 07:36:24;;;;;;;1.05;0.40;;;;;;;20.79;39.26;100001.66;4536645;28;20124;-60
2022/11/07 07:38:35;;;;;;;1.10;0.40;;;;;;;20.79;39.34;100004.53;4526030;28;20553;-60
2022/11/07 07:40:45;;;;;;;1.20;0.50;;;;;;;20.78;39.53;100007.78;4538334;28;20033;-60
2022/11/07 07:42:55;;;;;;;0.88;0.40;;;;;;;20.77;39.53;100001.22;4537970;28;20041;-59
2022/11/07 07:45:07;;;;;;;1.67;0.50;;;;;;;20.78;39.42;100010.66;4537513;28;20068;-60
2022/11/07 07:47:17;;;;;;;1.08;0.40;;;;;;;20.79;39.53;100015.16;4539326;28;20630;-60
2022/11/07 07:49:27;;;;;;;0.90;0.50;;;;;;;20.77;39.36;100011.88;4538469;28;20055;-60
2022/11/07 07:51:38;;;;;;;1.05;0.40;;;;;;;20.78;39.82;100007.78;4540477;28;20071;-60
2022/11/07 07:53:48;;;;;;;1.23;0.50;;;;;;;20.78;39.82;100020.09;4540120;28;20048;-60
2022/11/07 07:56:01;;;;;;;1.02;0.50;;;;;;;20.77;39.87;100017.63;4538814;28;20080;-60
2022/11/07 07:58:12;;;;;;;0.73;0.40;;;;;;;20.77;39.74;100009.81;4540167;28;20568;-59
2022/11/07 08:00:23;;;;;;;0.65;0.40;;;;;;;20.77;39.90;100011.88;4539304;28;20040;-59
2022/11/07 08:02:33;;;;;;;1.20;0.50;;;;;;;20.77;39.92;100009.81;4538519;28;20513;-59
2022/11/07 08:04:44;;;;;;;0.80;0.45;;;;;;;20.75;40.01;100008.56;4538747;28;20029;-60
2022/11/07 08:06:54;;;;;;;1.10;0.50;;;;;;;20.77;40.00;100003.28;4538925;28;20560;-59
2022/11/07 08:09:04;;;;;;;0.60;0.40;;;;;;;20.77;39.84;100011.88;4538765;28;20755;-59
2022/11/07 08:11:15;;;;;;;0.70;0.50;;;;;;;20.75;40.11;100008.56;4536397;28;20047;-59
2022/11/07 08:13:25;;;;;;;0.82;0.60;;;;;;;20.74;40.19;100009.75;4538404;28;20033;-59
2022/11/07 08:15:36;;;;;;;1.48;0.73;;;;;;;20.75;40.17;100012.25;4538533;28;20192;-59
2022/11/07 08:17:47;;;;;;;0.68;0.57;;;;;;;20.75;39.90;100011.44;4554054;28;20029;-59
2022/11/07 08:19:57;;;;;;;1.42;0.50;;;;;;;20.76;40.17;100021.66;4535876;28;20029;-59
2022/11/07 08:22:08;;;;;;;0.85;0.50;;;;;;;20.76;40.32;100018.81;4538607;28;20036;-59
2022/11/07 08:24:18;;;;;;;1.55;0.60;;;;;;;20.75;40.15;100020.03;4540607;28;20086;-59
2022/11/07 08:26:29;;;;;;;0.55;0.40;;;;;;;20.76;40.39;100016.78;4537907;28;20033;-59
2022/11/07 08:28:39;;;;;;;1.55;0.60;;;;;;;20.75;40.12;100020.88;4520852;28;20040;-59
2022/11/07 08:31:12;;;;;;;0.70;0.40;;;;;;;20.75;40.25;100020.03;4538308;28;20044;-59
2022/11/07 08:33:22;;;;;;;1.08;0.50;;;;;;;20.73;40.24;100019.56;4539995;28;20032;-59
2022/11/07 08:35:33;;;;;;;1.15;0.50;;;;;;;20.72;40.38;100015.88;4537993;28;20029;-59
2022/11/07 08:37:43;;;;;;;1.17;0.60;;;;;;;20.74;40.47;100029.81;4538084;28;20065;-60
2022/11/07 08:39:53;;;;;;;1.02;0.60;;;;;;;20.73;40.41;100028.19;4537104;28;20444;-60
2022/11/07 08:42:04;;;;;;;1.67;0.50;;;;;;;20.76;40.56;100028.25;4538260;28;20024;-60
2022/11/07 08:44:14;;;;;;;1.10;0.43;;;;;;;20.74;40.36;100029.81;4538540;28;20045;-59
2022/11/07 08:46:25;;;;;;;1.25;0.50;;;;;;;20.77;40.65;100026.22;4538545;28;20655;-59
2022/11/07 08:48:35;;;;;;;0.88;0.40;;;;;;;20.76;40.14;100028.25;4536583;28;20025;-60
2022/11/07 08:50:50;;;;;;;1.98;0.57;;;;;;;20.77;40.54;100020.47;4537828;28;20084;-60
2022/11/07 08:53:01;;;;;;;0.65;0.40;;;;;;;20.76;40.62;100027.41;4536221;28;20058;-60
2022/11/07 08:55:11;;;;;;;1.15;0.40;;;;;;;20.74;40.51;100027.78;4536068;28;20545;-60
2022/11/07 08:57:22;;;;;;;1.55;0.40;;;;;;;20.76;40.55;100030.28;4535260;28;20061;-60
2022/11/07 08:59:32;;;;;;;1.23;0.50;;;;;;;20.76;40.80;100038.88;4535852;28;20037;-59
2022/11/07 09:01:42;;;;;;;1.20;0.50;;;;;;;20.75;40.58;100040.09;4537171;28;20298;-60
2022/11/07 09:03:53;;;;;;;0.75;0.45;;;;;;;20.76;40.86;100027.41;4536233;28;20102;-60
2022/11/07 09:06:04;;;;;;;0.85;0.40;;;;;;;20.75;40.84;100037.22;4537822;28;20090;-60
2022/11/07 09:08:14;;;;;;;1.23;0.40;;;;;;;20.75;41.05;100038.06;4539078;28;20047;-60
2022/11/07 09:10:25;;;;;;;0.98;0.50;;;;;;;20.76;40.90;100036.00;4538218;28;20041;-60
2022/11/07 09:12:42;;;;;;;0.70;0.40;;;;;;;20.77;41.15;100031.94;4525464;28;20037;-60
2022/11/07 09:14:53;;;;;;;0.95;0.40;;;;;;;20.73;41.08;100034.75;4538171;28;21302;-60
2022/11/07 09:17:03;;;;;;;0.93;0.40;;;;;;;20.75;41.27;100043.81;4537312;28;20060;-60
2022/11/07 09:19:14;;;;;;;0.88;0.38;;;;;;;20.74;41.21;100029.81;4537659;28;20044;-60
2022/11/07 09:21:24;;;;;;;0.95;0.40;;;;;;;20.75;41.44;100037.22;4536717;28;20748;-60
2022/11/07 09:23:35;;;;;;;1.55;0.45;;;;;;;20.75;41.43;100040.09;4535789;28;20036;-60
2022/11/07 09:25:45;;;;;;;1.10;0.50;;;;;;;20.76;41.44;100047.50;4537871;28;20037;-60
2022/11/07 09:28:01;;;;;;;1.50;0.43;;;;;;;20.76;41.36;100047.50;4537319;28;20033;-61
2022/11/07 09:30:12;;;;;;;1.08;0.50;;;;;;;20.75;41.67;100048.72;4534947;28;20176;-60
2022/11/07 09:32:22;;;;;;;0.88;0.43;;;;;;;20.75;41.52;100060.19;4535617;28;20696;-60
2022/11/07 09:34:33;;;;;;;0.52;0.40;;;;;;;20.74;41.75;100053.59;4537568;28;20404;-60
2022/11/07 09:36:43;;;;;;;1.45;0.60;;;;;;;20.74;42.08;100052.75;4537822;28;20053;-60
2022/11/07 09:38:55;;;;;;;1.67;0.90;;;;;;;20.74;41.92;100055.63;4535896;28;20507;-60
2022/11/07 09:41:13;;;;;;;0.82;0.50;;;;;;;20.74;42.28;100047.03;4537259;28;20087;-60
2022/11/07 09:43:43;;;;;;;1.45;0.60;;;;;;;20.73;42.11;100056.84;4536192;28;20037;-60
2022/11/07 09:46:21;;;;;;;1.08;0.60;;;;;;;20.73;41.90;100054.00;4536864;28;20596;-60
2022/11/07 09:48:41;;;;;;;1.15;0.40;;;;;;;20.74;41.94;100069.97;4535540;28;20033;-60
2022/11/07 09:50:52;;;;;;;0.65;0.40;;;;;;;20.73;42.24;100062.59;4538633;28;20090;-60
2022/11/07 09:53:18;;;;;;;0.95;0.40;;;;;;;20.74;42.05;100070.81;4538084;28;20043;-60
2022/11/07 09:55:43;;;;;;;0.80;0.43;;;;;;;20.73;42.18;100072.03;4535495;28;20683;-60
2022/11/07 09:57:59;;;;;;;0.50;0.40;;;;;;;20.71;42.25;100065.00;4535891;28;20064;-60
2022/11/07 10:00:29;;;;;;;0.90;0.38;;;;;;;20.74;42.12;100069.97;4537208;28;20676;-60
2022/11/07 10:02:47;;;;;;;0.88;0.30;;;;;;;20.74;42.36;100081.44;4536782;28;20048;-60
2022/11/07 10:05:00;;;;;;;1.13;0.50;;;;;;;20.77;42.32;100095.06;4525271;28;20552;-60
2022/11/07 10:07:45;;;;;;;0.68;0.40;;;;;;;20.76;42.41;100096.25;4554200;28;20066;-60
2022/11/07 10:10:26;;;;;;;0.30;0.30;;;;;;;20.76;42.60;100096.25;4528518;28;20051;-60
2022/11/07 10:13:14;;;;;;;1.70;0.47;;;;;;;20.69;42.85;100091.19;4524918;28;20048;-60
2022/11/07 10:15:44;;;;;;;0.45;0.32;;;;;;;20.60;42.67;100096.34;4535922;28;20667;-60
2022/11/07 10:18:00;;;;;;;0.88;0.47;;;;;;;20.61;42.80;100103.72;4535618;28;20033;-60
2022/11/07 10:20:48;;;;;;;1.60;0.60;;;;;;;20.60;42.88;100107.81;4538146;28;20033;-60
2022/11/07 10:23:17;;;;;;;1.43;0.40;;;;;;;20.61;42.78;100114.41;4535841;28;20102;-61
2022/11/07 10:25:39;;;;;;;0.88;0.65;;;;;;;20.61;42.92;100111.53;4537109;28;20291;-62
2022/11/07 10:28:14;;;;;;;1.27;0.45;;;;;;;20.62;42.92;100113.16;4536831;28;20513;-62
2022/11/07 10:30:25;;;;;;;0.93;0.60;;;;;;;20.61;43.06;100114.41;4536378;28;20092;-64
2022/11/07 10:32:46;;;;;;;0.98;0.47;;;;;;;20.62;43.04;100113.16;4536789;28;20048;-60
2022/11/07 10:35:26;;;;;;;1.05;0.52;;;;;;;20.64;43.28;100110.75;4537674;28;20044;-61
2022/11/07 10:37:37;;;;;;;0.88;0.40;;;;;;;20.64;43.33;100116.50;4534423;28;20048;-60